createdAt,value
2023-01-13T00:01:49.341Z,3.72
2023-01-13T00:04:17.156Z,3.82
2023-01-13T00:06:45.036Z,3.72
2023-01-13T00:09:13.926Z,3.78
2023-01-13T00:11:41.724Z,3.82
2023-01-13T00:14:09.590Z,3.88
2023-01-13T00:16:38.999Z,3.79
2023-01-13T00:19:06.778Z,3.74
2023-01-13T00:21:34.627Z,3.70
2023-01-13T00:24:02.428Z,3.73
2023-01-13T00:26:33.692Z,3.73
2023-01-13T00:29:01.876Z,3.76
2023-01-13T00:31:30.859Z,3.72
2023-01-13T00:34:01.659Z,3.82
2023-01-13T00:36:30.806Z,3.86
2023-01-13T00:39:01.624Z,3.88
2023-01-13T00:41:49.450Z,3.79
2023-01-13T00:44:16.383Z,3.72
2023-01-13T00:46:44.476Z,3.82
2023-01-13T00:49:13.739Z,3.84
2023-01-13T00:51:41.743Z,3.84
2023-01-13T00:54:09.493Z,3.77
2023-01-13T00:56:40.563Z,3.72
2023-01-13T00:59:10.999Z,3.65
2023-01-13T01:01:39.374Z,3.73
2023-01-13T01:04:07.954Z,3.73
2023-01-13T01:06:37.237Z,3.65
2023-01-13T01:09:06.340Z,3.68
2023-01-13T01:11:36.149Z,3.56
2023-01-13T01:14:05.713Z,3.64
2023-01-13T01:16:34.633Z,3.62
2023-01-13T01:19:03.681Z,3.67
2023-01-13T01:21:32.016Z,3.58
2023-01-13T01:24:02.980Z,3.49
2023-01-13T01:26:32.238Z,3.32
2023-01-13T01:29:02.253Z,3.13
2023-01-13T01:31:34.078Z,2.82
2023-01-13T01:34:02.539Z,2.63
2023-01-13T01:36:31.017Z,2.30
2023-01-13T01:39:01.180Z,2.10
2023-01-13T01:41:31.681Z,1.68
2023-01-13T01:44:00.443Z,1.69
2023-01-13T01:46:32.327Z,1.64
2023-01-13T01:49:07.400Z,1.45
2023-01-13T01:51:40.245Z,1.20
2023-01-13T01:54:12.363Z,0.94
2023-01-13T01:56:43.365Z,0.84
2023-01-13T01:59:12.271Z,0.69
2023-01-13T02:01:41.920Z,0.93
2023-01-13T02:04:15.403Z,0.77
2023-01-13T02:06:44.979Z,0.70
2023-01-13T02:09:15.954Z,0.60
2023-01-13T02:12:00.371Z,0.71
2023-01-13T02:14:30.649Z,0.77
2023-01-13T02:17:16.479Z,0.72
2023-01-13T02:20:09.932Z,0.88
2023-01-13T02:23:06.332Z,0.92
2023-01-13T02:25:55.971Z,0.98
2023-01-13T02:29:05.445Z,1.02
2023-01-13T02:31:42.857Z,0.94
2023-01-13T02:34:14.834Z,0.89
2023-01-13T02:36:51.629Z,0.87
2023-01-13T02:39:26.168Z,0.87
2023-01-13T02:42:16.010Z,0.93
2023-01-13T02:44:47.938Z,0.84
2023-01-13T02:47:20.091Z,0.80
2023-01-13T02:49:51.242Z,0.71
2023-01-13T02:52:24.068Z,0.56
2023-01-13T02:54:56.297Z,0.42
2023-01-13T02:57:27.639Z,0.27
2023-01-13T02:59:57.003Z,0.36
2023-01-13T03:02:27.177Z,0.39
2023-01-13T03:04:57.417Z,0.26
2023-01-13T03:07:44.157Z,0.30
2023-01-13T03:10:23.170Z,0.31
2023-01-13T03:12:59.784Z,0.45
2023-01-13T03:15:40.414Z,0.65
2023-01-13T03:18:20.403Z,0.54
2023-01-13T03:21:00.462Z,0.41
2023-01-13T03:23:34.298Z,0.23
2023-01-13T03:26:09.632Z,0.11
2023-01-13T03:28:42.057Z,-0.08
2023-01-13T03:31:15.170Z,-0.20
2023-01-13T03:33:49.600Z,-0.32
2023-01-13T03:36:25.764Z,-0.35
2023-01-13T03:38:58.075Z,-0.45
2023-01-13T03:41:31.462Z,-0.57
2023-01-13T03:44:23.176Z,-0.63
2023-01-13T03:47:00.437Z,-0.58
2023-01-13T03:49:37.580Z,-0.59
2023-01-13T03:52:10.657Z,-0.58
2023-01-13T03:54:46.018Z,-0.49
2023-01-13T03:57:18.325Z,-0.24
2023-01-13T03:59:51.238Z,-0.22
2023-01-13T04:02:26.799Z,-0.27
2023-01-13T04:04:59.200Z,-0.38
2023-01-13T04:07:37.222Z,-0.44
2023-01-13T04:10:08.672Z,-0.53
2023-01-13T04:12:58.326Z,-0.52
2023-01-13T04:15:28.501Z,-0.58
2023-01-13T04:18:03.543Z,-0.70
2023-01-13T04:20:32.665Z,-0.66
2023-01-13T04:23:00.721Z,-0.73
2023-01-13T04:25:28.883Z,-0.75
2023-01-13T04:27:56.662Z,-0.76
2023-01-13T04:30:24.590Z,-0.57
2023-01-13T04:32:52.418Z,-0.49
2023-01-13T04:35:20.203Z,-0.41
2023-01-13T04:37:49.503Z,-0.45
2023-01-13T04:40:17.870Z,-0.56
2023-01-13T04:42:45.679Z,-0.65
2023-01-13T04:45:13.684Z,-0.76
2023-01-13T04:47:41.914Z,-0.82
2023-01-13T04:50:11.684Z,-0.88
2023-01-13T04:52:39.534Z,-0.95
2023-01-13T04:55:11.413Z,-0.99
2023-01-13T04:57:39.174Z,-0.96
2023-01-13T05:00:08.624Z,-0.90
2023-01-13T05:02:36.381Z,-0.91
2023-01-13T05:05:04.614Z,-0.90
2023-01-13T05:07:32.753Z,-0.81
2023-01-13T05:10:00.624Z,-0.73
2023-01-13T05:12:47.232Z,-0.59
2023-01-13T05:15:33.702Z,-0.48
2023-01-13T05:18:02.168Z,-0.28
2023-01-13T05:20:30.108Z,-0.18
2023-01-13T05:23:24.466Z,0.00
2023-01-13T05:25:52.499Z,0.00
2023-01-13T05:28:21.766Z,-0.08
2023-01-13T05:30:51.285Z,-0.03
2023-01-13T05:33:21.320Z,-0.03
2023-01-13T05:35:49.543Z,0.04
2023-01-13T05:38:18.663Z,0.00
2023-01-13T05:41:04.324Z,0.14
2023-01-13T05:47:15.698Z,0.49
2023-01-13T05:49:43.471Z,0.70
2023-01-13T05:52:11.295Z,0.85
2023-01-13T05:54:41.240Z,1.05
2023-01-13T05:57:09.051Z,1.22
2023-01-13T05:59:36.846Z,1.27
2023-01-13T06:02:04.645Z,1.40
2023-01-13T06:04:33.875Z,1.57
2023-01-13T06:07:01.639Z,1.71
2023-01-13T06:09:29.437Z,1.75
2023-01-13T06:11:57.189Z,1.81
2023-01-13T06:14:24.969Z,1.82
2023-01-13T06:16:52.825Z,1.86
2023-01-13T06:19:20.564Z,1.83
2023-01-13T06:21:49.732Z,1.93
2023-01-13T06:24:17.702Z,1.95
2023-01-13T06:26:45.473Z,1.89
2023-01-13T06:29:15.035Z,1.88
2023-01-13T06:31:42.951Z,1.97
2023-01-13T06:34:14.714Z,1.95
2023-01-13T06:36:46.621Z,2.06
2023-01-13T06:39:20.029Z,2.07
2023-01-13T06:42:09.378Z,2.05
2023-01-13T06:44:38.168Z,2.03
2023-01-13T06:47:06.426Z,2.05
2023-01-13T06:49:34.372Z,2.18
2023-01-13T06:52:02.219Z,2.27
2023-01-13T06:54:31.328Z,2.30
2023-01-13T06:56:59.101Z,2.31
2023-01-13T06:59:27.166Z,2.31
2023-01-13T07:01:55.080Z,2.35
2023-01-13T07:04:22.952Z,2.41
2023-01-13T07:06:50.758Z,2.37
2023-01-13T07:09:18.957Z,2.37
2023-01-13T07:11:48.215Z,2.45
2023-01-13T07:14:38.874Z,2.52
2023-01-13T07:17:06.864Z,2.54
2023-01-13T07:19:34.661Z,2.57
2023-01-13T07:22:02.680Z,2.65
2023-01-13T07:24:30.451Z,2.72
2023-01-13T07:26:59.574Z,2.70
2023-01-13T07:29:27.919Z,2.72
2023-01-13T07:31:55.737Z,2.73
2023-01-13T07:34:23.510Z,2.74
2023-01-13T07:36:51.384Z,2.83
2023-01-13T07:39:19.347Z,2.85
2023-01-13T07:42:05.013Z,2.84
2023-01-13T07:44:34.232Z,2.84
2023-01-13T07:47:02.208Z,2.87
2023-01-13T07:49:29.984Z,2.87
2023-01-13T07:51:57.753Z,2.91
2023-01-13T07:54:39.620Z,2.95
2023-01-13T07:57:08.295Z,2.93
2023-01-13T07:59:37.467Z,2.94
2023-01-13T08:02:05.467Z,2.97
2023-01-13T08:04:33.417Z,3.04
2023-01-13T08:07:01.178Z,2.99
2023-01-13T08:09:28.898Z,3.08
2023-01-13T08:12:17.134Z,3.06
2023-01-13T08:14:46.527Z,3.12
2023-01-13T08:17:14.389Z,3.14
2023-01-13T08:19:42.240Z,3.22
2023-01-13T08:22:10.020Z,3.19
2023-01-13T08:24:38.207Z,3.30
2023-01-13T08:27:06.351Z,3.25
2023-01-13T08:29:34.113Z,3.25
2023-01-13T08:32:03.557Z,3.25
2023-01-13T08:34:31.325Z,3.25
2023-01-13T08:36:59.076Z,3.30
2023-01-13T08:39:26.894Z,3.32
2023-01-13T08:41:58.509Z,3.40
2023-01-13T08:44:27.461Z,3.36
2023-01-13T08:46:55.740Z,3.46
2023-01-13T08:49:25.841Z,3.41
2023-01-13T08:51:54.230Z,3.46
2023-01-13T08:54:22.104Z,3.43
2023-01-13T08:56:49.969Z,3.49
2023-01-13T08:59:19.478Z,3.49
2023-01-13T09:01:47.476Z,3.55
2023-01-13T09:04:19.136Z,3.55
2023-01-13T09:06:48.993Z,3.58
2023-01-13T09:09:19.744Z,3.62
2023-01-13T09:12:08.344Z,3.65
2023-01-13T09:14:38.357Z,3.69
2023-01-13T09:17:07.401Z,3.74
2023-01-13T09:19:35.742Z,3.72
2023-01-13T09:22:05.246Z,3.74
2023-01-13T09:24:33.084Z,3.81
2023-01-13T09:27:00.951Z,3.76
2023-01-13T09:29:28.777Z,3.79
2023-01-13T09:31:58.043Z,3.63
2023-01-13T09:34:43.696Z,3.79
2023-01-13T09:37:14.909Z,3.81
2023-01-13T09:39:42.648Z,3.82
2023-01-13T09:42:41.453Z,3.79
2023-01-13T09:45:14.313Z,3.77
2023-01-13T09:47:47.418Z,3.76
2023-01-13T09:50:39.413Z,3.74
2023-01-13T09:53:15.168Z,3.80
2023-01-13T09:55:45.490Z,3.84
2023-01-13T09:58:18.208Z,3.85
2023-01-13T10:00:54.666Z,3.88
2023-01-13T10:03:26.244Z,3.84
2023-01-13T10:06:04.619Z,3.85
2023-01-13T10:08:36.567Z,3.91
2023-01-13T10:11:31.527Z,3.81
2023-01-13T10:14:01.073Z,3.87
2023-01-13T10:16:42.180Z,3.94
2023-01-13T10:19:18.795Z,3.99
2023-01-13T10:22:09.243Z,4.01
2023-01-13T10:24:55.834Z,4.06
2023-01-13T10:27:30.322Z,4.10
2023-01-13T10:29:58.206Z,4.11
2023-01-13T10:32:25.947Z,4.12
2023-01-13T10:34:57.117Z,4.09
2023-01-13T10:37:30.166Z,4.18
2023-01-13T10:40:02.874Z,4.23
2023-01-13T10:42:30.756Z,4.26
2023-01-13T10:45:00.094Z,4.26
2023-01-13T10:47:30.780Z,4.27
2023-01-13T10:50:05.642Z,4.40
2023-01-13T10:52:38.212Z,4.43
2023-01-13T10:55:26.362Z,4.43
2023-01-13T10:57:54.395Z,4.54
2023-01-13T11:00:33.273Z,4.53
2023-01-13T11:03:15.080Z,4.52
2023-01-13T11:05:50.087Z,4.51
2023-01-13T11:08:20.109Z,4.56
2023-01-13T11:10:51.497Z,4.64
2023-01-13T11:13:26.551Z,4.65
2023-01-13T11:15:59.969Z,4.74
2023-01-13T11:18:40.366Z,4.72
2023-01-13T11:21:18.168Z,4.87
2023-01-13T11:23:51.122Z,4.95
2023-01-13T11:26:24.848Z,4.94
2023-01-13T11:37:26.828Z,5.05
2023-01-13T11:40:04.027Z,5.20
2023-01-13T11:42:42.548Z,5.27
2023-01-13T11:45:19.808Z,5.28
2023-01-13T11:47:49.406Z,5.34
2023-01-13T11:50:25.312Z,5.39
2023-01-13T11:53:10.680Z,5.41
2023-01-13T11:55:47.418Z,5.54
2023-01-13T11:58:49.669Z,5.61
2023-01-13T12:01:29.353Z,5.58
2023-01-13T12:04:10.429Z,5.54
2023-01-13T12:06:41.083Z,5.66
2023-01-13T12:09:27.023Z,5.78
2023-01-13T12:12:22.130Z,5.85
2023-01-13T12:15:19.581Z,5.97
2023-01-13T12:17:55.606Z,6.02
2023-01-13T12:20:34.449Z,6.05
2023-01-13T12:23:08.852Z,5.89
2023-01-13T12:25:41.658Z,5.93
2023-01-13T12:28:15.141Z,5.94
2023-01-13T12:30:50.709Z,5.98
2023-01-13T12:33:27.617Z,6.04
2023-01-13T12:36:02.966Z,5.96
2023-01-13T12:38:37.823Z,5.89
2023-01-13T12:41:17.665Z,5.85
2023-01-13T12:44:06.247Z,5.70
2023-01-13T12:47:04.146Z,5.70
2023-01-13T12:49:33.833Z,5.68
2023-01-13T12:52:15.337Z,5.60
2023-01-13T12:55:20.930Z,5.54
2023-01-13T12:58:13.768Z,5.56
2023-01-13T13:00:57.088Z,5.51
2023-01-13T13:03:32.939Z,5.53
2023-01-13T13:06:08.740Z,5.58
2023-01-13T13:08:48.060Z,5.58
2023-01-13T13:11:40.468Z,5.55
2023-01-13T13:14:13.367Z,5.55
2023-01-13T13:16:51.419Z,5.48
2023-01-13T13:19:55.623Z,5.41
2023-01-13T13:22:44.024Z,5.24
2023-01-13T13:25:22.474Z,5.06
2023-01-13T13:28:02.687Z,4.92
2023-01-13T13:30:35.060Z,4.84
2023-01-13T13:33:26.292Z,4.71
2023-01-13T13:36:07.252Z,4.74
2023-01-13T13:39:12.706Z,4.61
2023-01-13T13:42:04.446Z,4.58
2023-01-13T13:44:55.348Z,4.23
2023-01-13T13:47:23.268Z,4.41
2023-01-13T13:49:55.670Z,4.35
2023-01-13T13:52:30.353Z,4.38
2023-01-13T13:55:07.498Z,4.32
2023-01-13T13:57:39.954Z,4.26
2023-01-13T14:00:18.131Z,4.28
2023-01-13T14:02:50.890Z,4.30
2023-01-13T14:05:21.776Z,4.42
2023-01-13T14:07:51.784Z,4.50
2023-01-13T14:10:24.736Z,4.60
2023-01-13T14:12:53.413Z,4.58
2023-01-13T14:15:32.616Z,4.64
2023-01-13T14:18:02.960Z,4.66
2023-01-13T14:20:31.123Z,4.67
2023-01-13T14:23:01.560Z,4.58
2023-01-13T14:25:33.550Z,4.60
2023-01-13T14:28:08.525Z,4.56
2023-01-13T14:30:37.115Z,4.60
2023-01-13T14:33:06.662Z,4.61
2023-01-13T14:35:34.506Z,4.68
2023-01-13T14:38:04.283Z,4.64
2023-01-13T14:40:46.905Z,4.63
2023-01-13T14:43:17.979Z,4.59
2023-01-13T14:45:56.960Z,4.55
2023-01-13T14:48:33.358Z,4.52
2023-01-13T14:51:02.649Z,4.57
2023-01-13T14:53:38.995Z,4.61
2023-01-13T14:56:50.958Z,4.64
2023-01-13T14:59:43.612Z,4.64
2023-01-13T15:02:48.028Z,4.67
2023-01-13T15:05:36.816Z,4.61
2023-01-13T15:08:18.510Z,4.60
2023-01-13T15:10:49.235Z,4.64
2023-01-13T15:13:35.776Z,4.65
2023-01-13T15:16:06.984Z,4.66
2023-01-13T15:18:39.875Z,4.59
2023-01-13T15:21:08.114Z,4.60
2023-01-13T15:23:35.945Z,4.56
2023-01-13T15:26:03.909Z,4.35
2023-01-13T15:28:33.221Z,4.52
2023-01-13T15:31:03.945Z,4.53
2023-01-13T15:33:35.397Z,4.55
2023-01-13T15:36:18.615Z,4.51
2023-01-13T15:38:46.497Z,4.50
2023-01-13T15:41:14.244Z,4.50
2023-01-13T15:44:01.388Z,4.56
2023-01-13T15:46:41.386Z,4.61
2023-01-13T15:49:18.006Z,4.65
2023-01-13T15:52:17.497Z,4.69
2023-01-13T15:54:45.396Z,4.68
2023-01-13T15:57:22.541Z,4.66
2023-01-13T15:59:53.201Z,4.80
2023-01-13T16:02:22.600Z,4.76
2023-01-13T16:04:53.753Z,4.77
2023-01-13T16:07:23.857Z,4.77
2023-01-13T16:09:51.697Z,4.81
2023-01-13T16:12:19.500Z,4.79
2023-01-13T16:14:47.308Z,4.83
2023-01-13T16:17:18.985Z,4.84
2023-01-13T16:19:48.133Z,4.83
2023-01-13T16:22:17.357Z,4.84
2023-01-13T16:24:45.605Z,4.86
2023-01-13T16:27:16.105Z,4.85
2023-01-13T16:29:43.940Z,4.81
2023-01-13T16:32:11.893Z,4.81
2023-01-13T16:34:41.512Z,4.79
2023-01-13T16:37:18.685Z,4.81
2023-01-13T16:39:46.488Z,4.77
2023-01-13T16:42:15.785Z,4.79
2023-01-13T16:44:44.118Z,4.77
2023-01-13T16:47:15.523Z,4.75
2023-01-13T16:49:44.956Z,4.79
2023-01-13T16:52:12.748Z,4.79
2023-01-13T16:54:40.639Z,4.75
2023-01-13T16:57:10.796Z,4.72
2023-01-13T16:59:38.491Z,4.72
2023-01-13T17:02:06.337Z,4.74
2023-01-13T17:04:36.130Z,4.77
2023-01-13T17:07:08.267Z,4.76
2023-01-13T17:09:36.046Z,4.79
2023-01-13T17:12:04.001Z,4.83
2023-01-13T17:14:31.793Z,4.81
2023-01-13T17:16:59.719Z,4.83
2023-01-13T17:19:27.610Z,4.83
2023-01-13T17:21:55.433Z,4.84
2023-01-13T17:24:32.560Z,4.84
2023-01-13T17:29:45.779Z,4.79
2023-01-13T17:32:17.150Z,4.80
2023-01-13T17:34:45.584Z,4.79
2023-01-13T17:37:14.928Z,4.82
2023-01-13T17:39:46.427Z,4.75
2023-01-13T17:42:14.998Z,4.79
2023-01-13T17:44:42.859Z,4.80
2023-01-13T17:47:11.966Z,4.81
2023-01-13T17:49:39.763Z,4.85
2023-01-13T17:52:07.875Z,4.80
2023-01-13T17:54:35.924Z,4.81
2023-01-13T17:57:05.140Z,4.82
2023-01-13T17:59:32.953Z,4.75
2023-01-13T18:02:00.875Z,4.75
2023-01-13T18:04:28.945Z,4.72
2023-01-13T18:06:57.741Z,4.66
2023-01-13T18:09:26.285Z,4.61
2023-01-13T18:11:56.625Z,4.64
2023-01-13T18:14:25.751Z,4.58
2023-01-13T18:16:53.715Z,4.60
2023-01-13T18:19:41.559Z,4.61
2023-01-13T18:22:30.969Z,4.53
2023-01-13T18:25:16.256Z,4.52
2023-01-13T18:27:44.057Z,4.50
2023-01-13T18:30:15.039Z,4.35
2023-01-13T18:32:43.482Z,4.38
2023-01-13T18:35:11.818Z,4.42
2023-01-13T18:37:42.291Z,4.46
2023-01-13T18:40:14.018Z,4.48
2023-01-13T18:42:58.765Z,4.53
2023-01-13T18:45:29.514Z,4.55
2023-01-13T18:48:00.172Z,4.46
2023-01-13T18:50:29.014Z,4.64
2023-01-13T18:52:57.054Z,4.64
2023-01-13T18:55:25.368Z,4.66
2023-01-13T18:57:53.846Z,4.70
2023-01-13T19:00:23.128Z,4.72
2023-01-13T19:05:35.254Z,4.78
2023-01-13T19:08:03.148Z,4.80
2023-01-13T19:10:32.644Z,4.82
2023-01-13T19:13:01.790Z,4.75
2023-01-13T19:15:29.895Z,4.77
2023-01-13T19:17:59.153Z,4.78
2023-01-13T19:20:26.942Z,4.78
2023-01-13T19:22:55.023Z,4.82
2023-01-13T19:25:23.282Z,4.84
2023-01-13T19:27:51.055Z,4.90
2023-01-13T19:30:19.334Z,4.93
2023-01-13T19:32:47.283Z,4.87
2023-01-13T19:35:17.989Z,4.88
2023-01-13T19:37:46.033Z,4.82
2023-01-13T19:40:14.333Z,4.90
2023-01-13T19:43:01.370Z,4.90
2023-01-13T19:45:30.960Z,4.96
2023-01-13T19:48:02.336Z,4.94
2023-01-13T19:50:31.404Z,4.96
2023-01-13T19:52:59.223Z,4.99
2023-01-13T19:55:28.164Z,5.00
2023-01-13T19:57:55.910Z,5.00
2023-01-13T20:00:24.109Z,5.01
2023-01-13T20:02:53.348Z,5.01
2023-01-13T20:05:25.614Z,5.01
2023-01-13T20:07:54.856Z,4.99
2023-01-13T20:10:24.406Z,5.02
2023-01-13T20:12:52.295Z,5.05
2023-01-13T20:15:20.140Z,5.09
2023-01-13T20:17:48.024Z,5.02
2023-01-13T20:20:16.690Z,5.07
2023-01-13T20:22:44.537Z,5.11
2023-01-13T20:25:17.116Z,5.13
2023-01-13T20:27:45.215Z,5.14
2023-01-13T20:30:14.571Z,5.14
2023-01-13T20:32:43.009Z,5.12
2023-01-13T20:35:11.908Z,5.12
2023-01-13T20:37:40.571Z,5.19
2023-01-13T20:40:09.997Z,5.09
2023-01-13T20:42:44.885Z,5.17
2023-01-13T20:45:17.094Z,5.21
2023-01-13T20:47:46.207Z,5.18
2023-01-13T20:50:18.765Z,5.12
2023-01-13T20:52:47.117Z,5.19
2023-01-13T20:55:15.294Z,5.18
2023-01-13T20:57:48.500Z,5.13
2023-01-13T21:00:17.208Z,5.15
2023-01-13T21:02:44.965Z,5.14
2023-01-13T21:05:12.926Z,5.11
2023-01-13T21:07:41.211Z,5.08
2023-01-13T21:10:11.370Z,5.16
2023-01-13T21:12:56.589Z,5.15
2023-01-13T21:15:27.744Z,5.17
2023-01-13T21:18:13.278Z,5.11
2023-01-13T21:20:41.278Z,5.02
2023-01-13T21:23:10.763Z,5.08
2023-01-13T21:25:39.859Z,5.08
2023-01-13T21:28:11.550Z,5.13
2023-01-13T21:30:41.416Z,5.12
2023-01-13T21:33:13.139Z,5.09
2023-01-13T21:35:40.917Z,5.10
2023-01-13T21:38:08.758Z,5.03
2023-01-13T21:40:36.513Z,5.10
2023-01-13T21:43:21.848Z,5.03
2023-01-13T21:46:08.368Z,4.85
2023-01-13T21:48:36.146Z,5.03
2023-01-13T21:51:03.928Z,5.07
2023-01-13T21:53:31.661Z,5.06
2023-01-13T21:55:59.425Z,5.07
2023-01-13T21:58:27.231Z,5.06
2023-01-13T22:00:56.561Z,4.98
2023-01-13T22:03:24.469Z,5.04
2023-01-13T22:05:56.510Z,5.11
2023-01-13T22:08:24.339Z,5.16
2023-01-13T22:10:57.802Z,5.09
2023-01-13T22:13:47.607Z,5.05
2023-01-13T22:16:17.377Z,5.14
2023-01-13T22:18:45.202Z,5.16
2023-01-13T22:21:12.997Z,5.13
2023-01-13T22:23:40.789Z,4.90
2023-01-13T22:26:09.318Z,5.12
2023-01-13T22:28:42.817Z,5.13
2023-01-13T22:31:12.137Z,4.93
2023-01-13T22:33:42.247Z,5.09
2023-01-13T22:36:10.866Z,5.07
2023-01-13T22:38:38.639Z,5.11
2023-01-13T22:41:08.587Z,5.14
2023-01-13T22:43:37.901Z,5.12
2023-01-13T22:46:07.900Z,4.98
2023-01-13T22:48:36.050Z,5.00
2023-01-13T22:51:09.840Z,4.99
2023-01-13T22:53:38.312Z,4.96
2023-01-13T22:56:07.024Z,5.01
2023-01-13T22:58:35.941Z,4.95
2023-01-13T23:01:11.253Z,5.05
2023-01-13T23:03:39.196Z,4.98
2023-01-13T23:06:08.990Z,4.98
2023-01-13T23:08:37.018Z,4.91
2023-01-13T23:11:06.449Z,4.91
2023-01-13T23:13:34.332Z,4.80
2023-01-13T23:16:04.349Z,4.88
2023-01-13T23:18:32.261Z,4.84
2023-01-13T23:21:03.923Z,4.79
2023-01-13T23:23:33.909Z,4.80
2023-01-13T23:26:02.591Z,4.94
2023-01-13T23:28:30.453Z,4.89
2023-01-13T23:30:58.255Z,4.85
2023-01-13T23:33:26.209Z,4.83
2023-01-13T23:35:57.719Z,4.89
2023-01-13T23:38:26.002Z,4.90
2023-01-13T23:40:55.205Z,4.87
2023-01-13T23:43:23.158Z,4.88
2023-01-13T23:45:51.296Z,4.85
2023-01-13T23:48:19.209Z,4.88
2023-01-13T23:50:57.888Z,5.00
2023-01-13T23:53:31.050Z,5.02
2023-01-13T23:56:00.759Z,4.94
2023-01-13T23:58:29.381Z,4.95
